createdAt,value
2019-01-26T00:01:06.226Z,20.60
2019-01-26T00:06:11.031Z,22.10
2019-01-26T00:11:15.756Z,21.77
2019-01-26T00:16:21.190Z,22.27
2019-01-26T00:21:26.076Z,21.20
2019-01-26T00:26:30.819Z,20.77
2019-01-26T00:31:35.528Z,22.02
2019-01-26T00:36:40.215Z,22.27
2019-01-26T00:41:44.959Z,21.30
2019-01-26T00:46:49.647Z,21.37
2019-01-26T00:51:54.319Z,21.43
2019-01-26T00:56:59.011Z,21.20
2019-01-26T01:02:04.571Z,22.23
2019-01-26T01:07:09.307Z,22.67
2019-01-26T01:12:13.992Z,20.90
2019-01-26T01:17:18.672Z,21.48
2019-01-26T01:22:23.334Z,20.70
2019-01-26T01:27:28.031Z,20.40
2019-01-26T01:32:32.641Z,19.83
2019-01-26T01:37:37.353Z,21.07
2019-01-26T01:42:42.287Z,19.40
2019-01-26T01:47:47.011Z,19.73
2019-01-26T01:52:51.814Z,19.10
2019-01-26T01:57:56.587Z,18.60
2019-01-26T02:03:01.274Z,19.30
2019-01-26T02:08:06.036Z,18.77
2019-01-26T02:13:10.779Z,18.67
2019-01-26T02:18:15.437Z,18.80
2019-01-26T02:23:20.109Z,18.87
2019-01-26T02:28:25.057Z,19.13
2019-01-26T02:33:29.737Z,19.33
2019-01-26T02:38:34.423Z,19.27
2019-01-26T02:43:39.213Z,19.53
2019-01-26T02:48:44.111Z,18.70
2019-01-26T02:53:50.938Z,18.63
2019-01-26T02:58:55.600Z,18.67
2019-01-26T03:04:00.342Z,19.07
2019-01-26T03:09:08.760Z,18.70
2019-01-26T03:14:13.434Z,20.07
2019-01-26T03:19:18.134Z,20.37
2019-01-26T03:24:22.812Z,20.17
2019-01-26T03:29:27.497Z,19.50
2019-01-26T03:34:32.401Z,20.37
2019-01-26T03:39:37.055Z,20.83
2019-01-26T03:44:41.982Z,20.47
2019-01-26T03:49:46.655Z,19.83
2019-01-26T03:54:51.321Z,19.13
2019-01-26T03:59:56.123Z,18.53
2019-01-26T04:05:01.185Z,18.83
2019-01-26T04:10:06.693Z,19.43
2019-01-26T04:15:12.454Z,20.17
2019-01-26T04:20:18.863Z,21.20
2019-01-26T04:25:23.509Z,20.60
2019-01-26T04:30:28.239Z,19.97
2019-01-26T04:35:32.901Z,20.70
2019-01-26T04:40:37.599Z,20.73
2019-01-26T04:45:42.246Z,21.67
2019-01-26T04:50:47.013Z,20.40
2019-01-26T04:55:51.794Z,21.00
2019-01-26T05:00:56.471Z,20.17
2019-01-26T05:06:01.143Z,20.33
2019-01-26T05:11:05.915Z,19.23
2019-01-26T05:16:10.593Z,21.03
2019-01-26T05:21:15.270Z,22.07
2019-01-26T05:26:20.009Z,22.37
2019-01-26T05:31:24.868Z,20.03
2019-01-26T05:36:29.548Z,19.93
2019-01-26T05:41:40.218Z,19.90
2019-01-26T05:46:45.224Z,19.33
2019-01-26T05:51:49.959Z,18.60
2019-01-26T05:56:54.677Z,19.37
2019-01-26T06:01:59.418Z,19.53
2019-01-26T06:07:04.572Z,19.53
2019-01-26T06:12:09.326Z,18.52
2019-01-26T06:17:14.013Z,18.52
2019-01-26T06:22:18.751Z,18.60
2019-01-26T06:27:26.258Z,19.47
2019-01-26T06:32:30.925Z,18.67
2019-01-26T06:37:35.604Z,19.53
2019-01-26T06:42:40.412Z,18.90
2019-01-26T06:47:45.209Z,18.07
2019-01-26T06:52:50.041Z,18.93
2019-01-26T06:57:54.716Z,17.93
2019-01-26T07:02:59.568Z,17.37
2019-01-26T07:08:04.412Z,16.40
2019-01-26T07:13:09.078Z,17.07
2019-01-26T07:18:13.946Z,16.37
2019-01-26T07:23:18.682Z,16.73
2019-01-26T07:28:23.379Z,15.70
2019-01-26T07:33:28.078Z,15.93
2019-01-26T07:38:33.841Z,16.03
2019-01-26T07:43:38.587Z,15.88
2019-01-26T07:48:44.547Z,15.90
2019-01-26T07:53:49.376Z,15.00
2019-01-26T07:58:54.072Z,15.70
2019-01-26T08:03:58.736Z,16.27
2019-01-26T08:09:07.378Z,16.10
2019-01-26T08:14:12.498Z,15.60
2019-01-26T08:19:17.174Z,15.37
2019-01-26T08:24:21.871Z,14.13
2019-01-26T08:29:26.558Z,14.50
2019-01-26T08:34:31.195Z,15.17
2019-01-26T08:39:35.889Z,16.03
2019-01-26T08:44:40.563Z,15.07
2019-01-26T08:49:45.222Z,14.50
2019-01-26T08:54:49.891Z,16.40
2019-01-26T08:59:54.643Z,14.57
2019-01-26T09:04:59.969Z,15.27
2019-01-26T09:10:05.252Z,15.47
2019-01-26T09:15:10.735Z,15.33
2019-01-26T09:20:15.869Z,15.40
2019-01-26T09:25:20.625Z,14.93
2019-01-26T09:30:25.451Z,15.83
2019-01-26T09:35:30.129Z,15.80
2019-01-26T09:40:34.989Z,14.83
2019-01-26T09:45:39.803Z,15.10
2019-01-26T09:50:44.473Z,13.50
2019-01-26T09:55:49.131Z,14.07
2019-01-26T10:00:53.892Z,14.40
2019-01-26T10:05:58.654Z,13.10
2019-01-26T10:11:04.521Z,11.67
2019-01-26T10:16:09.200Z,11.77
2019-01-26T10:21:14.840Z,12.43
2019-01-26T10:26:19.573Z,11.30
2019-01-26T10:31:28.413Z,11.33
2019-01-26T10:36:40.139Z,11.37
2019-01-26T10:42:05.528Z,11.07
2019-01-26T10:47:10.212Z,10.63
2019-01-26T10:52:15.902Z,10.98
2019-01-26T10:57:20.671Z,10.60
2019-01-26T11:02:25.458Z,10.17
2019-01-26T11:07:30.515Z,8.03
2019-01-26T11:12:35.304Z,8.57
2019-01-26T11:17:40.080Z,8.13
2019-01-26T11:22:45.012Z,6.97
2019-01-26T11:27:50.023Z,5.80
2019-01-26T11:32:54.859Z,7.23
2019-01-26T11:37:59.747Z,6.57
2019-01-26T11:43:04.484Z,7.00
2019-01-26T11:48:16.585Z,6.78
2019-01-26T11:53:21.652Z,6.92
2019-01-26T11:58:26.342Z,6.90
2019-01-26T12:03:41.886Z,6.83
2019-01-26T12:08:46.694Z,5.87
2019-01-26T12:13:51.373Z,5.97
2019-01-26T12:18:56.077Z,5.43
2019-01-26T12:24:00.812Z,5.37
2019-01-26T12:29:05.997Z,5.17
2019-01-26T12:34:10.792Z,4.83
2019-01-26T12:39:15.533Z,4.57
2019-01-26T12:44:20.206Z,5.08
2019-01-26T12:49:29.519Z,4.60
2019-01-26T12:54:31.368Z,4.13
2019-01-26T12:59:36.319Z,4.67
2019-01-26T13:04:41.118Z,4.30
2019-01-26T13:09:45.842Z,3.77
2019-01-26T13:14:50.604Z,4.30
2019-01-26T13:19:55.333Z,4.53
2019-01-26T13:25:00.196Z,5.10
2019-01-26T13:30:07.522Z,3.70
2019-01-26T13:35:12.346Z,3.20
2019-01-26T13:40:18.340Z,4.00
2019-01-26T13:45:23.168Z,5.20
2019-01-26T13:50:27.848Z,5.10
2019-01-26T13:55:32.788Z,4.90
2019-01-26T14:00:37.770Z,5.00
2019-01-26T14:05:42.536Z,4.33
2019-01-26T14:10:47.407Z,4.50
2019-01-26T14:15:52.226Z,4.40
2019-01-26T14:20:57.039Z,4.10
2019-01-26T14:26:01.751Z,4.70
2019-01-26T14:31:07.870Z,4.10
2019-01-26T14:36:12.641Z,4.03
2019-01-26T14:41:17.309Z,3.83
2019-01-26T14:46:22.060Z,3.40
2019-01-26T14:51:26.847Z,3.30
2019-01-26T14:56:31.685Z,3.60
2019-01-26T15:01:36.527Z,3.30
2019-01-26T15:06:41.508Z,3.53
2019-01-26T15:11:46.287Z,3.30
2019-01-26T15:16:50.986Z,3.30
2019-01-26T15:21:55.695Z,4.03
2019-01-26T15:27:00.379Z,3.30
2019-01-26T15:32:05.470Z,3.70
2019-01-26T15:37:10.524Z,3.90
2019-01-26T15:42:15.468Z,5.53
2019-01-26T15:47:20.463Z,4.67
2019-01-26T15:52:25.184Z,4.17
2019-01-26T15:57:29.847Z,4.50
2019-01-26T16:02:34.652Z,5.30
2019-01-26T16:07:40.624Z,5.97
2019-01-26T16:12:45.340Z,6.40
2019-01-26T16:17:50.433Z,6.63
2019-01-26T16:22:55.188Z,6.63
2019-01-26T16:27:59.852Z,6.27
2019-01-26T16:33:05.691Z,7.80
2019-01-26T16:38:12.077Z,7.90
2019-01-26T16:43:16.986Z,7.93
2019-01-26T16:48:22.112Z,7.90
2019-01-26T16:53:27.478Z,8.20
2019-01-26T16:58:32.384Z,8.50
2019-01-26T17:03:37.280Z,8.83
2019-01-26T17:08:41.960Z,8.93
2019-01-26T17:13:46.644Z,9.27
2019-01-26T17:18:51.748Z,9.67
2019-01-26T17:23:56.474Z,10.47
2019-01-26T17:29:01.191Z,10.50
2019-01-26T17:34:06.335Z,10.93
2019-01-26T17:39:12.527Z,10.50
2019-01-26T17:44:17.244Z,11.08
2019-01-26T17:49:21.912Z,11.28
2019-01-26T17:54:26.602Z,11.15
2019-01-26T17:59:31.374Z,11.47
2019-01-26T18:04:36.071Z,11.93
2019-01-26T18:09:40.753Z,11.13
2019-01-26T18:14:46.403Z,10.67
2019-01-26T18:19:51.548Z,11.03
2019-01-26T18:24:56.246Z,10.47
2019-01-26T18:30:00.929Z,10.37
2019-01-26T18:35:06.454Z,9.83
2019-01-26T18:40:14.379Z,9.60
2019-01-26T18:45:19.989Z,10.63
2019-01-26T18:50:26.591Z,9.97
2019-01-26T18:55:31.352Z,9.83
2019-01-26T19:00:38.853Z,10.07
2019-01-26T19:05:43.590Z,9.90
2019-01-26T19:10:48.267Z,9.73
2019-01-26T19:15:52.945Z,9.93
2019-01-26T19:21:03.159Z,9.53
2019-01-26T19:26:04.833Z,11.47
2019-01-26T19:31:09.508Z,9.80
2019-01-26T19:36:14.556Z,10.27
2019-01-26T19:41:19.410Z,9.97
2019-01-26T19:46:24.136Z,9.53
2019-01-26T19:51:28.892Z,10.17
2019-01-26T19:56:33.651Z,9.60
2019-01-26T20:01:38.366Z,9.70
2019-01-26T20:06:43.168Z,9.57
2019-01-26T20:11:47.836Z,9.60
2019-01-26T20:16:52.582Z,9.77
2019-01-26T20:21:58.350Z,9.77
2019-01-26T20:27:03.197Z,9.60
2019-01-26T20:32:08.152Z,9.37
2019-01-26T20:37:13.248Z,9.20
2019-01-26T20:42:19.051Z,8.97
2019-01-26T20:47:23.760Z,8.63
2019-01-26T20:52:28.433Z,8.20
2019-01-26T20:57:33.287Z,8.33
2019-01-26T21:02:38.253Z,8.83
2019-01-26T21:07:43.149Z,8.80
2019-01-26T21:12:48.216Z,7.73
2019-01-26T21:17:53.135Z,7.47
2019-01-26T21:22:57.878Z,8.43
2019-01-26T21:28:02.549Z,8.30
2019-01-26T21:33:07.293Z,7.70
2019-01-26T21:38:12.010Z,8.40
2019-01-26T21:43:23.680Z,8.00
2019-01-26T21:48:28.465Z,8.00
2019-01-26T21:53:34.187Z,7.63
2019-01-26T21:58:38.949Z,7.70
2019-01-26T22:03:44.678Z,6.07
2019-01-26T22:08:49.396Z,7.47
2019-01-26T22:13:54.098Z,7.23
2019-01-26T22:18:59.191Z,7.87
2019-01-26T22:24:04.585Z,8.10
2019-01-26T22:29:09.620Z,9.20
2019-01-26T22:34:14.387Z,9.53
2019-01-26T22:39:19.113Z,8.70
2019-01-26T22:44:27.487Z,9.13
2019-01-26T22:49:32.213Z,9.83
2019-01-26T22:54:36.875Z,10.50
2019-01-26T22:59:41.567Z,10.83
2019-01-26T23:05:30.677Z,11.97
2019-01-26T23:11:18.110Z,13.17
2019-01-26T23:17:07.247Z,13.40
2019-01-26T23:22:49.020Z,14.70
2019-01-26T23:27:58.646Z,14.77
2019-01-26T23:33:04.858Z,14.00
2019-01-26T23:38:09.655Z,12.97
2019-01-26T23:43:14.438Z,13.33
2019-01-26T23:48:19.381Z,14.80
2019-01-26T23:53:24.076Z,14.23
2019-01-26T23:58:28.834Z,13.90
